sensor_id;sensor_type;location;lat;lon;timestamp;temperature;humidity
37412;DHT22;23278;52.110;6.050;2023-04-15T00:01:19;6.00;93.40
37412;DHT22;23278;52.110;6.050;2023-04-15T00:03:46;6.00;93.80
37412;DHT22;23278;52.110;6.050;2023-04-15T00:06:12;6.00;94.40
37412;DHT22;23278;52.110;6.050;2023-04-15T00:08:39;6.00;94.30
37412;DHT22;23278;52.110;6.050;2023-04-15T00:11:05;5.90;95.10
37412;DHT22;23278;52.110;6.050;2023-04-15T00:13:31;5.90;95.50
37412;DHT22;23278;52.110;6.050;2023-04-15T00:16:00;5.90;95.40
37412;DHT22;23278;52.110;6.050;2023-04-15T00:18:26;5.80;95.50
37412;DHT22;23278;52.110;6.050;2023-04-15T00:20:54;5.80;95.90
37412;DHT22;23278;52.110;6.050;2023-04-15T00:23:20;5.70;95.90
37412;DHT22;23278;52.110;6.050;2023-04-15T00:25:46;5.70;96.00
37412;DHT22;23278;52.110;6.050;2023-04-15T00:28:12;5.70;96.30
37412;DHT22;23278;52.110;6.050;2023-04-15T00:30:38;5.60;96.30
37412;DHT22;23278;52.110;6.050;2023-04-15T00:33:04;5.60;97.20
37412;DHT22;23278;52.110;6.050;2023-04-15T00:35:30;5.60;97.70
37412;DHT22;23278;52.110;6.050;2023-04-15T00:37:59;5.60;97.90
37412;DHT22;23278;52.110;6.050;2023-04-15T00:40:25;5.50;98.10
37412;DHT22;23278;52.110;6.050;2023-04-15T00:42:52;5.50;98.00
37412;DHT22;23278;52.110;6.050;2023-04-15T00:45:19;5.50;98.10
37412;DHT22;23278;52.110;6.050;2023-04-15T00:47:45;5.50;98.30
37412;DHT22;23278;52.110;6.050;2023-04-15T00:50:11;5.50;98.40
37412;DHT22;23278;52.110;6.050;2023-04-15T00:52:38;5.40;98.30
37412;DHT22;23278;52.110;6.050;2023-04-15T00:55:05;5.40;98.30
37412;DHT22;23278;52.110;6.050;2023-04-15T00:57:32;5.30;98.60
37412;DHT22;23278;52.110;6.050;2023-04-15T00:59:58;5.30;98.60
37412;DHT22;23278;52.110;6.050;2023-04-15T01:02:25;5.30;99.00
37412;DHT22;23278;52.110;6.050;2023-04-15T01:04:51;5.30;99.40
37412;DHT22;23278;52.110;6.050;2023-04-15T01:07:17;5.20;99.30
37412;DHT22;23278;52.110;6.050;2023-04-15T01:09:44;5.20;99.60
37412;DHT22;23278;52.110;6.050;2023-04-15T01:12:11;5.20;99.50
37412;DHT22;23278;52.110;6.050;2023-04-15T01:14:38;5.20;99.60
37412;DHT22;23278;52.110;6.050;2023-04-15T01:17:04;5.10;99.60
37412;DHT22;23278;52.110;6.050;2023-04-15T01:19:32;5.10;99.70
37412;DHT22;23278;52.110;6.050;2023-04-15T01:21:58;5.00;99.80
37412;DHT22;23278;52.110;6.050;2023-04-15T01:24:25;5.00;99.70
37412;DHT22;23278;52.110;6.050;2023-04-15T01:26:51;5.00;99.70
37412;DHT22;23278;52.110;6.050;2023-04-15T01:29:17;5.00;99.90
37412;DHT22;23278;52.110;6.050;2023-04-15T01:31:54;5.00;99.90
37412;DHT22;23278;52.110;6.050;2023-04-15T01:34:39;5.00;99.90
37412;DHT22;23278;52.110;6.050;2023-04-15T01:37:24;5.00;99.90
37412;DHT22;23278;52.110;6.050;2023-04-15T01:39:50;5.00;99.90
37412;DHT22;23278;52.110;6.050;2023-04-15T01:42:16;4.90;99.90
37412;DHT22;23278;52.110;6.050;2023-04-15T01:44:43;4.90;99.90
37412;DHT22;23278;52.110;6.050;2023-04-15T01:47:12;4.80;99.90
37412;DHT22;23278;52.110;6.050;2023-04-15T01:49:39;4.90;99.90
37412;DHT22;23278;52.110;6.050;2023-04-15T01:52:07;4.80;99.90
37412;DHT22;23278;52.110;6.050;2023-04-15T01:54:34;4.80;99.90
37412;DHT22;23278;52.110;6.050;2023-04-15T01:57:02;4.80;99.90
37412;DHT22;23278;52.110;6.050;2023-04-15T01:59:38;4.80;99.90
37412;DHT22;23278;52.110;6.050;2023-04-15T02:02:05;4.70;99.90
37412;DHT22;23278;52.110;6.050;2023-04-15T02:04:32;4.70;99.90
37412;DHT22;23278;52.110;6.050;2023-04-15T02:07:00;4.70;99.90
37412;DHT22;23278;52.110;6.050;2023-04-15T02:09:27;4.60;99.90
37412;DHT22;23278;52.110;6.050;2023-04-15T02:11:55;4.60;99.90
37412;DHT22;23278;52.110;6.050;2023-04-15T02:14:22;4.60;99.90
37412;DHT22;23278;52.110;6.050;2023-04-15T02:16:49;4.60;99.90
37412;DHT22;23278;52.110;6.050;2023-04-15T02:19:16;4.50;99.90
37412;DHT22;23278;52.110;6.050;2023-04-15T02:21:44;4.50;99.90
37412;DHT22;23278;52.110;6.050;2023-04-15T02:24:11;4.50;99.90
37412;DHT22;23278;52.110;6.050;2023-04-15T02:26:41;4.50;99.90
37412;DHT22;23278;52.110;6.050;2023-04-15T02:29:08;4.50;99.90
37412;DHT22;23278;52.110;6.050;2023-04-15T02:31:35;4.50;99.90
37412;DHT22;23278;52.110;6.050;2023-04-15T02:34:06;4.50;99.90
37412;DHT22;23278;52.110;6.050;2023-04-15T02:36:34;4.50;99.90
37412;DHT22;23278;52.110;6.050;2023-04-15T02:39:01;4.50;99.90
37412;DHT22;23278;52.110;6.050;2023-04-15T02:41:29;4.40;99.90
37412;DHT22;23278;52.110;6.050;2023-04-15T02:43:57;4.50;99.90
37412;DHT22;23278;52.110;6.050;2023-04-15T02:46:24;4.40;99.90
37412;DHT22;23278;52.110;6.050;2023-04-15T02:48:51;4.40;99.90
37412;DHT22;23278;52.110;6.050;2023-04-15T02:51:20;4.40;99.90
37412;DHT22;23278;52.110;6.050;2023-04-15T02:53:49;4.40;99.90
37412;DHT22;23278;52.110;6.050;2023-04-15T02:56:16;4.40;99.90
37412;DHT22;23278;52.110;6.050;2023-04-15T02:58:45;4.30;99.90
37412;DHT22;23278;52.110;6.050;2023-04-15T03:01:12;4.40;99.90
37412;DHT22;23278;52.110;6.050;2023-04-15T03:03:41;4.30;99.90
37412;DHT22;23278;52.110;6.050;2023-04-15T03:06:08;4.40;99.90
37412;DHT22;23278;52.110;6.050;2023-04-15T03:08:35;4.30;99.90
37412;DHT22;23278;52.110;6.050;2023-04-15T03:11:03;4.30;99.90
37412;DHT22;23278;52.110;6.050;2023-04-15T03:13:31;4.30;99.90
37412;DHT22;23278;52.110;6.050;2023-04-15T03:16:00;4.30;99.90
37412;DHT22;23278;52.110;6.050;2023-04-15T03:18:28;4.30;99.90
37412;DHT22;23278;52.110;6.050;2023-04-15T03:20:55;4.30;99.90
37412;DHT22;23278;52.110;6.050;2023-04-15T03:23:24;4.30;99.90
37412;DHT22;23278;52.110;6.050;2023-04-15T03:25:51;4.20;99.90
37412;DHT22;23278;52.110;6.050;2023-04-15T03:28:23;4.20;99.90
37412;DHT22;23278;52.110;6.050;2023-04-15T03:30:50;4.20;99.90
37412;DHT22;23278;52.110;6.050;2023-04-15T03:33:17;4.10;99.90
37412;DHT22;23278;52.110;6.050;2023-04-15T03:35:44;4.10;99.90
37412;DHT22;23278;52.110;6.050;2023-04-15T03:38:12;4.10;99.90
37412;DHT22;23278;52.110;6.050;2023-04-15T03:40:40;4.10;99.90
37412;DHT22;23278;52.110;6.050;2023-04-15T03:43:07;4.10;99.90
37412;DHT22;23278;52.110;6.050;2023-04-15T03:45:34;4.10;99.90
37412;DHT22;23278;52.110;6.050;2023-04-15T03:48:02;4.00;99.90
37412;DHT22;23278;52.110;6.050;2023-04-15T03:50:29;4.00;99.90
37412;DHT22;23278;52.110;6.050;2023-04-15T03:52:56;4.00;99.90
37412;DHT22;23278;52.110;6.050;2023-04-15T03:55:24;4.00;99.90
37412;DHT22;23278;52.110;6.050;2023-04-15T03:57:51;4.00;99.90
37412;DHT22;23278;52.110;6.050;2023-04-15T04:00:18;4.00;99.90
37412;DHT22;23278;52.110;6.050;2023-04-15T04:02:46;4.00;99.90
37412;DHT22;23278;52.110;6.050;2023-04-15T04:05:13;4.00;99.90
37412;DHT22;23278;52.110;6.050;2023-04-15T04:07:40;3.90;99.90
37412;DHT22;23278;52.110;6.050;2023-04-15T04:10:07;4.00;99.90
37412;DHT22;23278;52.110;6.050;2023-04-15T04:12:35;3.90;99.90
37412;DHT22;23278;52.110;6.050;2023-04-15T04:15:02;3.90;99.90
37412;DHT22;23278;52.110;6.050;2023-04-15T04:17:29;3.90;99.90
37412;DHT22;23278;52.110;6.050;2023-04-15T04:19:57;3.80;99.90
37412;DHT22;23278;52.110;6.050;2023-04-15T04:22:24;3.90;99.90
37412;DHT22;23278;52.110;6.050;2023-04-15T04:24:51;3.80;99.90
37412;DHT22;23278;52.110;6.050;2023-04-15T04:27:18;3.80;99.90
37412;DHT22;23278;52.110;6.050;2023-04-15T04:29:45;3.80;99.90
37412;DHT22;23278;52.110;6.050;2023-04-15T04:32:13;3.70;99.90
37412;DHT22;23278;52.110;6.050;2023-04-15T04:34:40;3.70;99.90
37412;DHT22;23278;52.110;6.050;2023-04-15T04:37:07;3.70;99.90
37412;DHT22;23278;52.110;6.050;2023-04-15T04:39:35;3.70;99.90
37412;DHT22;23278;52.110;6.050;2023-04-15T04:42:02;3.70;99.90
37412;DHT22;23278;52.110;6.050;2023-04-15T04:44:29;3.70;99.90
37412;DHT22;23278;52.110;6.050;2023-04-15T04:46:56;3.70;99.90
37412;DHT22;23278;52.110;6.050;2023-04-15T04:49:44;3.70;99.90
37412;DHT22;23278;52.110;6.050;2023-04-15T04:52:11;3.60;99.90
37412;DHT22;23278;52.110;6.050;2023-04-15T04:54:38;3.60;99.90
37412;DHT22;23278;52.110;6.050;2023-04-15T04:57:05;3.70;99.90
37412;DHT22;23278;52.110;6.050;2023-04-15T04:59:33;3.60;99.90
37412;DHT22;23278;52.110;6.050;2023-04-15T05:02:01;3.60;99.90
37412;DHT22;23278;52.110;6.050;2023-04-15T05:04:29;3.60;99.90
37412;DHT22;23278;52.110;6.050;2023-04-15T05:06:57;3.60;99.90
37412;DHT22;23278;52.110;6.050;2023-04-15T05:09:25;3.70;99.90
37412;DHT22;23278;52.110;6.050;2023-04-15T05:11:52;3.70;99.90
37412;DHT22;23278;52.110;6.050;2023-04-15T05:14:20;3.70;99.90
37412;DHT22;23278;52.110;6.050;2023-04-15T05:16:47;3.70;99.90
37412;DHT22;23278;52.110;6.050;2023-04-15T05:19:14;3.70;99.90
37412;DHT22;23278;52.110;6.050;2023-04-15T05:21:41;3.80;99.90
37412;DHT22;23278;52.110;6.050;2023-04-15T05:24:08;3.80;99.90
37412;DHT22;23278;52.110;6.050;2023-04-15T05:26:35;3.80;99.90
37412;DHT22;23278;52.110;6.050;2023-04-15T05:29:02;3.90;99.90
37412;DHT22;23278;52.110;6.050;2023-04-15T05:31:32;3.80;99.90
37412;DHT22;23278;52.110;6.050;2023-04-15T05:34:00;3.90;99.90
37412;DHT22;23278;52.110;6.050;2023-04-15T05:36:27;3.90;99.90
37412;DHT22;23278;52.110;6.050;2023-04-15T05:38:54;4.00;99.90
37412;DHT22;23278;52.110;6.050;2023-04-15T05:41:21;4.00;99.90
37412;DHT22;23278;52.110;6.050;2023-04-15T05:43:48;4.10;99.90
37412;DHT22;23278;52.110;6.050;2023-04-15T05:46:15;4.30;99.90
37412;DHT22;23278;52.110;6.050;2023-04-15T05:48:43;4.40;99.90
37412;DHT22;23278;52.110;6.050;2023-04-15T05:51:10;4.50;99.90
37412;DHT22;23278;52.110;6.050;2023-04-15T05:53:37;4.70;99.90
37412;DHT22;23278;52.110;6.050;2023-04-15T05:56:04;4.80;99.90
37412;DHT22;23278;52.110;6.050;2023-04-15T05:58:31;5.00;99.90
37412;DHT22;23278;52.110;6.050;2023-04-15T06:00:58;5.20;99.90
37412;DHT22;23278;52.110;6.050;2023-04-15T06:03:26;5.40;99.90
37412;DHT22;23278;52.110;6.050;2023-04-15T06:05:53;5.60;99.90
37412;DHT22;23278;52.110;6.050;2023-04-15T06:08:20;5.70;99.90
37412;DHT22;23278;52.110;6.050;2023-04-15T06:10:48;5.90;99.90
37412;DHT22;23278;52.110;6.050;2023-04-15T06:13:15;6.00;99.90
37412;DHT22;23278;52.110;6.050;2023-04-15T06:15:42;6.10;99.90
37412;DHT22;23278;52.110;6.050;2023-04-15T06:18:10;6.20;99.90
37412;DHT22;23278;52.110;6.050;2023-04-15T06:20:37;6.20;99.90
37412;DHT22;23278;52.110;6.050;2023-04-15T06:23:04;6.30;99.90
37412;DHT22;23278;52.110;6.050;2023-04-15T06:25:32;6.30;99.90
37412;DHT22;23278;52.110;6.050;2023-04-15T06:27:59;6.40;99.90
37412;DHT22;23278;52.110;6.050;2023-04-15T06:30:26;6.40;99.90
37412;DHT22;23278;52.110;6.050;2023-04-15T06:32:54;6.50;99.90
37412;DHT22;23278;52.110;6.050;2023-04-15T06:35:21;6.60;99.90
37412;DHT22;23278;52.110;6.050;2023-04-15T06:37:49;6.70;99.90
37412;DHT22;23278;52.110;6.050;2023-04-15T06:40:16;6.80;99.90
37412;DHT22;23278;52.110;6.050;2023-04-15T06:42:43;6.90;99.90
37412;DHT22;23278;52.110;6.050;2023-04-15T06:45:10;7.10;99.90
37412;DHT22;23278;52.110;6.050;2023-04-15T06:47:37;7.20;99.90
37412;DHT22;23278;52.110;6.050;2023-04-15T06:50:05;7.30;99.90
37412;DHT22;23278;52.110;6.050;2023-04-15T06:52:32;7.30;99.90
37412;DHT22;23278;52.110;6.050;2023-04-15T06:55:00;7.40;99.90
37412;DHT22;23278;52.110;6.050;2023-04-15T06:57:27;7.60;99.90
37412;DHT22;23278;52.110;6.050;2023-04-15T06:59:55;7.70;99.90
37412;DHT22;23278;52.110;6.050;2023-04-15T07:02:22;7.80;99.90
37412;DHT22;23278;52.110;6.050;2023-04-15T07:04:49;7.80;99.90
37412;DHT22;23278;52.110;6.050;2023-04-15T07:07:16;7.90;99.90
37412;DHT22;23278;52.110;6.050;2023-04-15T07:09:44;8.00;99.90
37412;DHT22;23278;52.110;6.050;2023-04-15T07:12:11;8.20;99.90
37412;DHT22;23278;52.110;6.050;2023-04-15T07:14:38;8.30;99.90
37412;DHT22;23278;52.110;6.050;2023-04-15T07:17:05;8.40;99.90
37412;DHT22;23278;52.110;6.050;2023-04-15T07:19:33;8.50;99.90
37412;DHT22;23278;52.110;6.050;2023-04-15T07:22:00;8.70;99.90
37412;DHT22;23278;52.110;6.050;2023-04-15T07:24:27;8.80;99.90
37412;DHT22;23278;52.110;6.050;2023-04-15T07:26:55;9.10;99.90
37412;DHT22;23278;52.110;6.050;2023-04-15T07:29:25;9.30;99.90
37412;DHT22;23278;52.110;6.050;2023-04-15T07:31:53;9.50;99.90
37412;DHT22;23278;52.110;6.050;2023-04-15T07:34:20;9.70;99.90
37412;DHT22;23278;52.110;6.050;2023-04-15T07:36:47;10.00;99.90
37412;DHT22;23278;52.110;6.050;2023-04-15T07:39:39;10.10;99.90
37412;DHT22;23278;52.110;6.050;2023-04-15T07:42:06;10.40;99.90
37412;DHT22;23278;52.110;6.050;2023-04-15T07:44:34;10.60;99.90
37412;DHT22;23278;52.110;6.050;2023-04-15T07:47:02;10.70;99.60
37412;DHT22;23278;52.110;6.050;2023-04-15T07:49:30;10.80;99.30
37412;DHT22;23278;52.110;6.050;2023-04-15T07:51:57;11.00;98.80
37412;DHT22;23278;52.110;6.050;2023-04-15T07:54:25;11.10;98.40
37412;DHT22;23278;52.110;6.050;2023-04-15T07:56:53;11.30;98.10
37412;DHT22;23278;52.110;6.050;2023-04-15T07:59:20;11.50;97.60
37412;DHT22;23278;52.110;6.050;2023-04-15T08:01:47;11.60;97.10
37412;DHT22;23278;52.110;6.050;2023-04-15T08:04:15;11.80;96.80
37412;DHT22;23278;52.110;6.050;2023-04-15T08:06:42;12.00;96.60
37412;DHT22;23278;52.110;6.050;2023-04-15T08:09:09;12.10;96.20
37412;DHT22;23278;52.110;6.050;2023-04-15T08:11:37;12.10;95.50
37412;DHT22;23278;52.110;6.050;2023-04-15T08:14:04;12.20;94.90
37412;DHT22;23278;52.110;6.050;2023-04-15T08:16:31;12.20;94.80
37412;DHT22;23278;52.110;6.050;2023-04-15T08:18:58;12.20;94.30
37412;DHT22;23278;52.110;6.050;2023-04-15T08:21:26;12.30;94.20
37412;DHT22;23278;52.110;6.050;2023-04-15T08:23:53;12.40;94.00
37412;DHT22;23278;52.110;6.050;2023-04-15T08:26:21;12.60;93.50
37412;DHT22;23278;52.110;6.050;2023-04-15T08:28:48;12.70;92.60
37412;DHT22;23278;52.110;6.050;2023-04-15T08:31:17;12.70;92.10
37412;DHT22;23278;52.110;6.050;2023-04-15T08:33:45;12.80;92.10
37412;DHT22;23278;52.110;6.050;2023-04-15T08:36:12;12.80;91.90
37412;DHT22;23278;52.110;6.050;2023-04-15T08:38:39;12.90;91.50
37412;DHT22;23278;52.110;6.050;2023-04-15T08:43:52;13.20;91.30
37412;DHT22;23278;52.110;6.050;2023-04-15T08:46:20;13.30;90.90
37412;DHT22;23278;52.110;6.050;2023-04-15T08:48:48;13.50;90.40
37412;DHT22;23278;52.110;6.050;2023-04-15T08:51:17;13.60;90.10
37412;DHT22;23278;52.110;6.050;2023-04-15T08:53:44;13.80;90.00
37412;DHT22;23278;52.110;6.050;2023-04-15T08:56:15;14.00;89.60
37412;DHT22;23278;52.110;6.050;2023-04-15T08:58:45;14.20;88.40
37412;DHT22;23278;52.110;6.050;2023-04-15T09:01:13;14.40;87.40
37412;DHT22;23278;52.110;6.050;2023-04-15T09:03:41;14.70;86.80
37412;DHT22;23278;52.110;6.050;2023-04-15T09:06:08;15.00;85.50
37412;DHT22;23278;52.110;6.050;2023-04-15T09:08:35;15.20;84.00
37412;DHT22;23278;52.110;6.050;2023-04-15T09:11:03;15.30;82.90
37412;DHT22;23278;52.110;6.050;2023-04-15T09:13:30;15.40;82.50
37412;DHT22;23278;52.110;6.050;2023-04-15T09:15:57;15.50;81.60
37412;DHT22;23278;52.110;6.050;2023-04-15T09:20:55;15.90;79.40
37412;DHT22;23278;52.110;6.050;2023-04-15T09:23:31;16.00;79.10
37412;DHT22;23278;52.110;6.050;2023-04-15T09:26:00;16.00;77.50
37412;DHT22;23278;52.110;6.050;2023-04-15T09:28:28;16.00;76.90
37412;DHT22;23278;52.110;6.050;2023-04-15T09:30:59;16.00;76.80
37412;DHT22;23278;52.110;6.050;2023-04-15T09:33:28;16.10;76.10
37412;DHT22;23278;52.110;6.050;2023-04-15T09:36:05;16.20;74.00
37412;DHT22;23278;52.110;6.050;2023-04-15T09:38:32;16.60;73.40
37412;DHT22;23278;52.110;6.050;2023-04-15T09:40:59;17.30;70.70
37412;DHT22;23278;52.110;6.050;2023-04-15T09:43:39;17.80;68.70
37412;DHT22;23278;52.110;6.050;2023-04-15T09:46:06;18.40;67.40
37412;DHT22;23278;52.110;6.050;2023-04-15T09:48:34;18.80;65.60
37412;DHT22;23278;52.110;6.050;2023-04-15T09:51:01;18.70;64.70
37412;DHT22;23278;52.110;6.050;2023-04-15T09:53:28;18.70;63.80
37412;DHT22;23278;52.110;6.050;2023-04-15T09:55:59;18.60;63.40
37412;DHT22;23278;52.110;6.050;2023-04-15T09:58:30;18.60;62.70
37412;DHT22;23278;52.110;6.050;2023-04-15T10:00:58;18.40;63.00
37412;DHT22;23278;52.110;6.050;2023-04-15T10:03:31;18.70;62.00
37412;DHT22;23278;52.110;6.050;2023-04-15T10:06:00;19.30;60.30
37412;DHT22;23278;52.110;6.050;2023-04-15T10:08:30;20.30;58.20
37412;DHT22;23278;52.110;6.050;2023-04-15T10:11:00;20.60;57.00
37412;DHT22;23278;52.110;6.050;2023-04-15T10:13:29;20.40;56.20
37412;DHT22;23278;52.110;6.050;2023-04-15T10:16:14;19.80;56.60
37412;DHT22;23278;52.110;6.050;2023-04-15T10:18:44;19.30;58.00
37412;DHT22;23278;52.110;6.050;2023-04-15T10:21:12;18.80;58.40
37412;DHT22;23278;52.110;6.050;2023-04-15T10:23:42;18.40;59.20
37412;DHT22;23278;52.110;6.050;2023-04-15T10:26:11;18.00;60.10
37412;DHT22;23278;52.110;6.050;2023-04-15T10:28:38;17.90;60.20
37412;DHT22;23278;52.110;6.050;2023-04-15T10:31:06;18.30;59.60
37412;DHT22;23278;52.110;6.050;2023-04-15T10:33:34;19.10;57.70
37412;DHT22;23278;52.110;6.050;2023-04-15T10:36:01;19.60;56.80
37412;DHT22;23278;52.110;6.050;2023-04-15T10:38:46;20.00;55.50
37412;DHT22;23278;52.110;6.050;2023-04-15T10:43:54;18.80;57.40
37412;DHT22;23278;52.110;6.050;2023-04-15T10:51:37;18.40;57.50
37412;DHT22;23278;52.110;6.050;2023-04-15T10:54:12;18.20;57.80
37412;DHT22;23278;52.110;6.050;2023-04-15T10:59:29;18.60;58.30
37412;DHT22;23278;52.110;6.050;2023-04-15T11:02:00;18.80;57.00
37412;DHT22;23278;52.110;6.050;2023-04-15T11:04:53;18.60;56.70
37412;DHT22;23278;52.110;6.050;2023-04-15T11:07:48;18.50;57.20
37412;DHT22;23278;52.110;6.050;2023-04-15T11:12:59;19.20;55.80
37412;DHT22;23278;52.110;6.050;2023-04-15T11:15:39;19.60;54.90
37412;DHT22;23278;52.110;6.050;2023-04-15T11:18:21;20.00;54.50
37412;DHT22;23278;52.110;6.050;2023-04-15T11:20:49;20.50;53.10
37412;DHT22;23278;52.110;6.050;2023-04-15T11:23:18;20.50;52.80
37412;DHT22;23278;52.110;6.050;2023-04-15T11:25:45;20.60;52.40
37412;DHT22;23278;52.110;6.050;2023-04-15T11:28:14;21.80;51.10
37412;DHT22;23278;52.110;6.050;2023-04-15T11:30:41;23.10;48.90
37412;DHT22;23278;52.110;6.050;2023-04-15T11:33:11;23.00;48.30
37412;DHT22;23278;52.110;6.050;2023-04-15T11:35:40;22.40;48.50
37412;DHT22;23278;52.110;6.050;2023-04-15T11:38:12;21.80;49.40
37412;DHT22;23278;52.110;6.050;2023-04-15T11:40:40;21.40;50.00
37412;DHT22;23278;52.110;6.050;2023-04-15T11:43:08;21.70;49.80
37412;DHT22;23278;52.110;6.050;2023-04-15T11:45:37;22.00;47.70
37412;DHT22;23278;52.110;6.050;2023-04-15T11:48:09;21.60;48.80
37412;DHT22;23278;52.110;6.050;2023-04-15T11:50:37;20.90;50.00
37412;DHT22;23278;52.110;6.050;2023-04-15T11:53:06;20.80;50.40
37412;DHT22;23278;52.110;6.050;2023-04-15T11:55:49;22.40;48.30
37412;DHT22;23278;52.110;6.050;2023-04-15T11:58:17;24.30;45.00
37412;DHT22;23278;52.110;6.050;2023-04-15T12:03:21;25.10;43.20
37412;DHT22;23278;52.110;6.050;2023-04-15T12:06:03;24.50;44.00
37412;DHT22;23278;52.110;6.050;2023-04-15T12:13:56;23.80;44.30
37412;DHT22;23278;52.110;6.050;2023-04-15T12:16:23;25.40;41.90
37412;DHT22;23278;52.110;6.050;2023-04-15T12:18:54;27.30;40.10
37412;DHT22;23278;52.110;6.050;2023-04-15T12:21:32;27.40;38.80
37412;DHT22;23278;52.110;6.050;2023-04-15T12:24:05;26.40;39.80
37412;DHT22;23278;52.110;6.050;2023-04-15T12:26:37;25.50;41.00
37412;DHT22;23278;52.110;6.050;2023-04-15T12:29:07;24.70;41.90
37412;DHT22;23278;52.110;6.050;2023-04-15T12:31:45;24.10;42.30
37412;DHT22;23278;52.110;6.050;2023-04-15T12:34:12;24.60;41.10
37412;DHT22;23278;52.110;6.050;2023-04-15T12:36:39;24.90;40.10
37412;DHT22;23278;52.110;6.050;2023-04-15T12:39:05;24.20;41.60
37412;DHT22;23278;52.110;6.050;2023-04-15T12:41:31;23.50;42.60
37412;DHT22;23278;52.110;6.050;2023-04-15T12:43:57;22.70;43.80
37412;DHT22;23278;52.110;6.050;2023-04-15T12:46:24;21.90;45.10
37412;DHT22;23278;52.110;6.050;2023-04-15T12:48:50;21.30;46.30
37412;DHT22;23278;52.110;6.050;2023-04-15T12:51:19;21.10;46.80
37412;DHT22;23278;52.110;6.050;2023-04-15T12:53:50;20.90;47.10
37412;DHT22;23278;52.110;6.050;2023-04-15T12:56:17;20.70;47.40
37412;DHT22;23278;52.110;6.050;2023-04-15T12:58:43;20.50;47.60
37412;DHT22;23278;52.110;6.050;2023-04-15T13:01:09;20.60;47.70
37412;DHT22;23278;52.110;6.050;2023-04-15T13:03:35;20.70;47.20
37412;DHT22;23278;52.110;6.050;2023-04-15T13:06:01;21.20;46.70
37412;DHT22;23278;52.110;6.050;2023-04-15T13:08:29;22.40;44.70
37412;DHT22;23278;52.110;6.050;2023-04-15T13:10:55;22.80;43.90
37412;DHT22;23278;52.110;6.050;2023-04-15T13:13:21;22.90;44.60
37412;DHT22;23278;52.110;6.050;2023-04-15T13:16:06;22.50;45.10
37412;DHT22;23278;52.110;6.050;2023-04-15T13:18:32;22.30;45.30
37412;DHT22;23278;52.110;6.050;2023-04-15T13:20:59;23.50;43.00
37412;DHT22;23278;52.110;6.050;2023-04-15T13:23:26;23.50;42.30
37412;DHT22;23278;52.110;6.050;2023-04-15T13:25:51;22.70;44.00
37412;DHT22;23278;52.110;6.050;2023-04-15T13:28:17;21.90;45.10
37412;DHT22;23278;52.110;6.050;2023-04-15T13:30:43;21.40;45.20
37412;DHT22;23278;52.110;6.050;2023-04-15T13:33:10;21.20;45.80
37412;DHT22;23278;52.110;6.050;2023-04-15T13:35:36;21.10;46.30
37412;DHT22;23278;52.110;6.050;2023-04-15T13:38:03;20.80;47.40
37412;DHT22;23278;52.110;6.050;2023-04-15T13:40:28;20.40;47.90
37412;DHT22;23278;52.110;6.050;2023-04-15T13:42:55;20.20;48.40
37412;DHT22;23278;52.110;6.050;2023-04-15T13:45:20;19.90;48.70
37412;DHT22;23278;52.110;6.050;2023-04-15T13:47:47;19.90;49.10
37412;DHT22;23278;52.110;6.050;2023-04-15T13:50:13;19.70;49.70
37412;DHT22;23278;52.110;6.050;2023-04-15T13:52:39;19.40;50.10
37412;DHT22;23278;52.110;6.050;2023-04-15T13:55:05;18.90;50.80
37412;DHT22;23278;52.110;6.050;2023-04-15T13:57:31;18.50;51.80
37412;DHT22;23278;52.110;6.050;2023-04-15T13:59:57;18.10;52.70
37412;DHT22;23278;52.110;6.050;2023-04-15T14:02:23;17.70;53.40
37412;DHT22;23278;52.110;6.050;2023-04-15T14:04:49;17.60;53.80
37412;DHT22;23278;52.110;6.050;2023-04-15T14:07:15;17.40;53.70
37412;DHT22;23278;52.110;6.050;2023-04-15T14:09:42;17.20;54.00
37412;DHT22;23278;52.110;6.050;2023-04-15T14:12:09;17.00;54.70
37412;DHT22;23278;52.110;6.050;2023-04-15T14:14:35;16.80;55.50
37412;DHT22;23278;52.110;6.050;2023-04-15T14:17:02;16.60;55.90
37412;DHT22;23278;52.110;6.050;2023-04-15T14:19:29;16.50;56.20
37412;DHT22;23278;52.110;6.050;2023-04-15T14:21:56;16.30;56.70
37412;DHT22;23278;52.110;6.050;2023-04-15T14:24:21;16.10;57.30
37412;DHT22;23278;52.110;6.050;2023-04-15T14:26:48;15.90;57.80
37412;DHT22;23278;52.110;6.050;2023-04-15T14:29:13;15.90;58.20
37412;DHT22;23278;52.110;6.050;2023-04-15T14:31:40;15.80;58.70
37412;DHT22;23278;52.110;6.050;2023-04-15T14:34:05;15.80;58.90
37412;DHT22;23278;52.110;6.050;2023-04-15T14:36:31;15.70;59.10
37412;DHT22;23278;52.110;6.050;2023-04-15T14:38:58;15.70;59.60
37412;DHT22;23278;52.110;6.050;2023-04-15T14:41:24;15.70;60.00
37412;DHT22;23278;52.110;6.050;2023-04-15T14:43:50;15.60;60.30
37412;DHT22;23278;52.110;6.050;2023-04-15T14:46:16;15.50;60.40
37412;DHT22;23278;52.110;6.050;2023-04-15T14:48:42;15.60;60.50
37412;DHT22;23278;52.110;6.050;2023-04-15T14:51:08;15.60;60.60
37412;DHT22;23278;52.110;6.050;2023-04-15T14:53:34;15.50;60.60
37412;DHT22;23278;52.110;6.050;2023-04-15T14:56:00;15.40;61.00
37412;DHT22;23278;52.110;6.050;2023-04-15T14:58:26;15.30;61.50
37412;DHT22;23278;52.110;6.050;2023-04-15T15:00:52;15.20;62.20
37412;DHT22;23278;52.110;6.050;2023-04-15T15:03:18;15.00;62.60
37412;DHT22;23278;52.110;6.050;2023-04-15T15:05:45;14.90;63.40
37412;DHT22;23278;52.110;6.050;2023-04-15T15:08:12;14.80;63.80
37412;DHT22;23278;52.110;6.050;2023-04-15T15:10:39;14.70;63.90
37412;DHT22;23278;52.110;6.050;2023-04-15T15:13:07;14.80;64.10
37412;DHT22;23278;52.110;6.050;2023-04-15T15:15:34;14.80;63.70
37412;DHT22;23278;52.110;6.050;2023-04-15T15:18:01;14.60;64.00
37412;DHT22;23278;52.110;6.050;2023-04-15T15:20:28;14.60;64.20
37412;DHT22;23278;52.110;6.050;2023-04-15T15:22:54;14.70;64.20
37412;DHT22;23278;52.110;6.050;2023-04-15T15:25:20;14.80;64.30
37412;DHT22;23278;52.110;6.050;2023-04-15T15:27:46;15.00;64.00
37412;DHT22;23278;52.110;6.050;2023-04-15T15:30:12;15.00;63.30
37412;DHT22;23278;52.110;6.050;2023-04-15T15:32:39;14.90;63.90
37412;DHT22;23278;52.110;6.050;2023-04-15T15:35:06;14.90;64.30
37412;DHT22;23278;52.110;6.050;2023-04-15T15:37:32;14.80;64.70
37412;DHT22;23278;52.110;6.050;2023-04-15T15:39:58;14.70;65.10
37412;DHT22;23278;52.110;6.050;2023-04-15T15:42:25;14.60;65.20
37412;DHT22;23278;52.110;6.050;2023-04-15T15:44:51;14.50;65.30
37412;DHT22;23278;52.110;6.050;2023-04-15T15:47:18;14.50;66.00
37412;DHT22;23278;52.110;6.050;2023-04-15T15:49:45;14.30;65.80
37412;DHT22;23278;52.110;6.050;2023-04-15T15:52:11;14.20;66.30
37412;DHT22;23278;52.110;6.050;2023-04-15T15:54:39;14.10;66.80
37412;DHT22;23278;52.110;6.050;2023-04-15T15:57:05;13.90;67.30
37412;DHT22;23278;52.110;6.050;2023-04-15T15:59:31;13.80;67.50
37412;DHT22;23278;52.110;6.050;2023-04-15T16:01:58;13.80;67.90
37412;DHT22;23278;52.110;6.050;2023-04-15T16:04:24;13.80;68.20
37412;DHT22;23278;52.110;6.050;2023-04-15T16:06:50;13.70;68.30
37412;DHT22;23278;52.110;6.050;2023-04-15T16:09:17;13.70;69.00